Time;durP1;ratioP1;P1;durP2;ratioP2;P2;SDS_P1;SDS_P2;PMS_P1;PMS_P2;Temp;Humidity;BMP_temperature;BMP_pressure;BME280_temperature;BME280_humidity;BME280_pressure;Samples;Min_cycle;Max_cycle;Signal;HPM_P1;HPM_P2
2022/07/09 00:01:58;;;;;;;9.40;9.10;;;18.30;99.90;;;;;;5104803;28;20259;-88
2022/07/09 00:04:26;;;;;;;9.55;9.25;;;18.30;99.90;;;;;;5101355;28;20237;-88
2022/07/09 00:06:54;;;;;;;9.57;9.27;;;18.40;99.90;;;;;;5099835;28;20256;-88
2022/07/09 00:09:22;;;;;;;9.52;9.23;;;18.40;99.90;;;;;;5099119;28;20233;-89
2022/07/09 00:11:53;;;;;;;9.23;8.93;;;18.50;99.90;;;;;;5099032;28;20307;-88
2022/07/09 00:14:22;;;;;;;9.40;9.10;;;18.50;99.90;;;;;;5098076;28;20245;-89
2022/07/09 00:16:54;;;;;;;9.35;9.05;;;18.50;99.90;;;;;;5098407;28;20233;-89
2022/07/09 00:19:22;;;;;;;9.38;9.07;;;18.50;99.90;;;;;;5098630;28;20233;-88
2022/07/09 00:21:51;;;;;;;9.43;9.13;;;18.60;99.90;;;;;;5098427;28;20268;-88
2022/07/09 00:24:19;;;;;;;9.52;9.23;;;18.50;99.90;;;;;;5098620;28;20236;-89
2022/07/09 00:26:47;;;;;;;9.50;9.20;;;18.40;99.90;;;;;;5097951;28;20217;-89
2022/07/09 00:29:15;;;;;;;9.30;9.00;;;18.20;99.90;;;;;;5097762;28;20237;-89
2022/07/09 00:31:45;;;;;;;9.40;9.10;;;18.10;99.90;;;;;;5097858;28;20264;-89
2022/07/09 00:34:15;;;;;;;8.90;8.70;;;18.00;99.90;;;;;;5097269;28;20285;-89
2022/07/09 00:36:43;;;;;;;9.20;8.90;;;18.00;99.90;;;;;;5095660;28;20320;-89
2022/07/09 00:39:11;;;;;;;9.10;8.90;;;18.00;99.90;;;;;;5097032;28;20332;-88
2022/07/09 00:41:40;;;;;;;9.00;8.80;;;18.00;99.90;;;;;;5097369;28;20259;-89
2022/07/09 00:44:08;;;;;;;9.07;8.88;;;18.00;99.90;;;;;;5097355;28;20311;-89
2022/07/09 00:46:36;;;;;;;9.30;9.00;;;18.00;99.90;;;;;;5097434;28;20225;-88
2022/07/09 00:49:06;;;;;;;9.40;9.10;;;18.00;99.90;;;;;;5098199;28;20233;-90
2022/07/09 00:51:35;;;;;;;9.20;8.90;;;18.00;99.90;;;;;;5099717;28;20229;-89
2022/07/09 00:54:04;;;;;;;9.60;9.30;;;18.10;99.90;;;;;;5099594;28;20229;-89
2022/07/09 00:56:32;;;;;;;9.68;9.38;;;18.10;99.90;;;;;;5098747;28;20233;-89
2022/07/09 00:59:01;;;;;;;9.57;9.27;;;18.10;99.90;;;;;;5097961;28;20240;-88
2022/07/09 01:01:29;;;;;;;9.50;9.20;;;18.00;99.90;;;;;;5098555;28;20235;-88
2022/07/09 01:03:57;;;;;;;9.77;9.48;;;18.00;99.90;;;;;;5097391;28;20233;-88
2022/07/09 01:06:27;;;;;;;9.77;9.48;;;17.90;99.90;;;;;;5097292;28;20287;-89
2022/07/09 01:08:55;;;;;;;9.57;9.27;;;17.80;99.90;;;;;;5096730;28;20307;-88
2022/07/09 01:11:23;;;;;;;9.70;9.40;;;17.70;99.90;;;;;;5097685;28;20235;-88
2022/07/09 01:13:52;;;;;;;9.43;9.13;;;17.70;99.90;;;;;;5096774;28;20229;-88
2022/07/09 01:16:20;;;;;;;9.60;9.30;;;17.70;99.90;;;;;;5096595;28;20241;-88
2022/07/09 01:18:49;;;;;;;9.30;9.00;;;17.70;99.90;;;;;;5097640;28;20233;-89
2022/07/09 01:21:19;;;;;;;9.50;9.20;;;17.60;99.90;;;;;;5097663;28;20240;-89
2022/07/09 01:23:47;;;;;;;9.57;9.27;;;17.70;99.90;;;;;;5096987;28;20236;-89
2022/07/09 01:26:15;;;;;;;9.60;9.30;;;17.60;99.90;;;;;;5097688;28;20288;-88
2022/07/09 01:28:43;;;;;;;9.57;9.27;;;17.60;99.90;;;;;;5096334;28;20356;-88
2022/07/09 01:31:11;;;;;;;9.57;9.27;;;17.60;99.90;;;;;;5097030;28;20235;-88
2022/07/09 01:33:39;;;;;;;9.40;9.10;;;17.50;99.90;;;;;;5096679;28;20269;-88
2022/07/09 01:36:11;;;;;;;9.10;8.90;;;17.50;99.90;;;;;;5096221;28;20259;-88
2022/07/09 01:38:41;;;;;;;9.60;9.30;;;17.60;99.90;;;;;;5096215;28;20233;-89
2022/07/09 01:41:09;;;;;;;9.30;9.00;;;17.50;99.90;;;;;;5096570;28;20264;-88
2022/07/09 01:43:38;;;;;;;9.13;8.82;;;17.50;99.90;;;;;;5096682;28;20225;-88
2022/07/09 01:46:06;;;;;;;9.40;9.10;;;17.50;99.90;;;;;;5096754;28;20233;-89
2022/07/09 01:48:35;;;;;;;9.63;9.32;;;17.50;99.90;;;;;;5097699;28;20295;-88
2022/07/09 01:51:04;;;;;;;9.50;9.20;;;17.40;99.90;;;;;;5100979;28;20279;-89
2022/07/09 01:53:33;;;;;;;9.40;9.10;;;17.50;99.90;;;;;;5100255;28;20237;-88
2022/07/09 01:56:08;;;;;;;9.50;9.20;;;17.50;99.90;;;;;;5099835;28;20233;-89
2022/07/09 01:58:36;;;;;;;9.40;9.10;;;17.60;99.90;;;;;;5099904;28;20232;-88
2022/07/09 02:01:06;;;;;;;9.63;9.32;;;17.60;99.90;;;;;;5100580;28;20252;-88
2022/07/09 02:03:34;;;;;;;9.70;9.40;;;17.60;99.90;;;;;;5100575;28;20233;-88
2022/07/09 02:06:02;;;;;;;9.45;9.15;;;17.60;99.90;;;;;;5100670;28;20299;-88
2022/07/09 02:08:30;;;;;;;9.75;9.45;;;17.60;99.90;;;;;;5103185;28;20778;-92
2022/07/09 02:10:58;;;;;;;9.80;9.50;;;17.60;99.90;;;;;;5123316;28;20270;-93
2022/07/09 02:13:28;;;;;;;9.88;9.57;;;17.70;99.90;;;;;;5123104;28;20205;-92
2022/07/09 02:16:00;;;;;;;9.55;9.25;;;17.70;99.90;;;;;;5117920;28;20225;-89
2022/07/09 02:18:28;;;;;;;9.45;9.15;;;17.60;99.90;;;;;;5101685;28;20233;-89
2022/07/09 02:20:56;;;;;;;9.82;9.52;;;17.60;99.90;;;;;;5100982;28;20233;-89
2022/07/09 02:23:25;;;;;;;9.75;9.45;;;17.50;99.90;;;;;;5100557;28;20241;-89
2022/07/09 02:25:53;;;;;;;9.50;9.20;;;17.50;99.90;;;;;;5107878;28;20233;-92
2022/07/09 02:28:21;;;;;;;9.60;9.30;;;17.50;99.90;;;;;;5122635;28;20221;-94
2022/07/09 02:30:53;;;;;;;9.55;9.25;;;17.50;99.90;;;;;;5122773;28;20213;-93
2022/07/09 02:33:21;;;;;;;9.57;9.27;;;17.50;99.90;;;;;;5122828;28;20213;-91
2022/07/09 02:35:49;;;;;;;9.50;9.20;;;17.50;99.90;;;;;;5122516;28;20225;-93
2022/07/09 02:38:21;;;;;;;9.50;9.20;;;17.50;99.90;;;;;;5122696;28;20286;-92
2022/07/09 02:40:49;;;;;;;9.40;9.10;;;17.50;99.90;;;;;;5122792;28;20218;-92
2022/07/09 02:43:17;;;;;;;9.70;9.40;;;17.40;99.90;;;;;;5122383;28;20230;-94
2022/07/09 02:45:44;;;;;;;9.20;8.90;;;17.40;99.90;;;;;;5122455;28;20214;-93
2022/07/09 02:48:14;;;;;;;9.43;9.13;;;17.40;99.90;;;;;;5110277;28;20283;-89
2022/07/09 02:50:42;;;;;;;9.40;9.10;;;17.40;99.90;;;;;;5103282;28;20239;-89
2022/07/09 02:53:10;;;;;;;9.30;9.00;;;17.40;99.90;;;;;;5102438;28;20224;-91
2022/07/09 02:55:38;;;;;;;9.20;8.90;;;17.40;99.90;;;;;;5100059;28;20225;-90
2022/07/09 02:58:06;;;;;;;9.70;9.40;;;17.40;99.90;;;;;;5100221;28;20286;-89
2022/07/09 03:00:39;;;;;;;9.60;9.30;;;17.40;99.90;;;;;;5099105;28;20293;-89
2022/07/09 03:03:08;;;;;;;9.20;8.90;;;17.30;99.90;;;;;;5098958;28;20307;-90
2022/07/09 03:05:38;;;;;;;9.40;9.10;;;17.30;99.90;;;;;;5099095;28;20267;-89
2022/07/09 03:08:08;;;;;;;9.60;9.30;;;17.30;99.90;;;;;;5099621;28;20229;-88
2022/07/09 03:10:36;;;;;;;9.50;9.20;;;17.30;99.90;;;;;;5098875;28;20229;-90
2022/07/09 03:13:04;;;;;;;9.85;9.55;;;17.30;99.90;;;;;;5098986;28;20233;-89
2022/07/09 03:15:33;;;;;;;9.70;9.40;;;17.30;99.90;;;;;;5099046;28;20264;-88
2022/07/09 03:18:01;;;;;;;9.80;9.50;;;17.20;99.90;;;;;;5097917;28;20324;-89
2022/07/09 03:20:29;;;;;;;9.90;9.60;;;17.20;99.90;;;;;;5099263;28;20225;-89
2022/07/09 03:22:58;;;;;;;9.80;9.50;;;17.20;99.90;;;;;;5099061;28;20234;-89
2022/07/09 03:25:26;;;;;;;9.90;9.60;;;17.20;99.90;;;;;;5098825;28;20213;-89
2022/07/09 03:27:55;;;;;;;9.77;9.48;;;17.20;99.90;;;;;;5097866;28;20245;-89
2022/07/09 03:30:23;;;;;;;9.70;9.40;;;17.20;99.90;;;;;;5097993;28;20229;-89
2022/07/09 03:32:51;;;;;;;9.90;9.60;;;17.10;99.90;;;;;;5098306;28;20335;-88
2022/07/09 03:35:20;;;;;;;10.00;9.70;;;17.10;99.90;;;;;;5097734;28;20261;-89
2022/07/09 03:37:49;;;;;;;9.57;9.27;;;17.10;99.90;;;;;;5097704;28;20291;-88
2022/07/09 03:40:19;;;;;;;10.00;9.70;;;17.00;99.90;;;;;;5098027;28;20236;-89
2022/07/09 03:42:47;;;;;;;9.88;9.57;;;17.00;99.90;;;;;;5097753;28;20234;-89
2022/07/09 03:45:15;;;;;;;9.65;9.35;;;17.00;99.90;;;;;;5098393;28;20222;-90
2022/07/09 03:47:43;;;;;;;9.70;9.40;;;16.90;99.90;;;;;;5098894;28;20291;-88
2022/07/09 03:50:12;;;;;;;9.60;9.30;;;16.90;99.90;;;;;;5098151;28;20256;-89
2022/07/09 03:52:39;;;;;;;9.75;9.45;;;16.90;99.90;;;;;;5097649;28;20564;-89
2022/07/09 03:55:08;;;;;;;9.70;9.40;;;17.00;99.90;;;;;;5097430;28;20225;-90
2022/07/09 03:57:38;;;;;;;9.60;9.30;;;17.00;99.90;;;;;;5098469;28;20240;-88
2022/07/09 04:00:10;;;;;;;9.45;9.15;;;17.00;99.90;;;;;;5098397;28;20290;-88
2022/07/09 04:02:38;;;;;;;9.77;9.48;;;17.00;99.90;;;;;;5097399;28;20251;-89
2022/07/09 04:05:08;;;;;;;9.68;9.38;;;17.00;99.90;;;;;;5097882;28;20229;-88
2022/07/09 04:07:36;;;;;;;9.85;9.55;;;17.00;99.90;;;;;;5097275;28;20289;-88
2022/07/09 04:10:05;;;;;;;9.60;9.30;;;17.00;99.90;;;;;;5097604;28;20282;-88
2022/07/09 04:12:34;;;;;;;9.88;9.57;;;17.00;99.90;;;;;;5098125;28;20225;-89
2022/07/09 04:15:04;;;;;;;9.93;9.63;;;17.00;99.90;;;;;;5097631;28;20225;-89
2022/07/09 04:17:34;;;;;;;9.85;9.55;;;17.00;99.90;;;;;;5115333;28;20232;-93
2022/07/09 04:20:01;;;;;;;9.90;9.60;;;17.00;99.90;;;;;;5121416;28;20213;-93
2022/07/09 04:22:29;;;;;;;9.68;9.38;;;17.00;99.90;;;;;;5121424;28;20218;-92
2022/07/09 04:24:58;;;;;;;9.50;9.20;;;17.00;99.90;;;;;;5121122;28;20197;-92
2022/07/09 04:27:25;;;;;;;9.60;9.30;;;17.00;99.90;;;;;;5120744;28;20230;-92
2022/07/09 04:29:53;;;;;;;9.65;9.35;;;17.00;99.90;;;;;;5121000;28;20205;-92
2022/07/09 04:32:24;;;;;;;9.85;9.55;;;17.10;99.90;;;;;;5121122;28;20232;-93
2022/07/09 04:34:51;;;;;;;9.70;9.40;;;17.10;99.90;;;;;;5120778;28;20194;-92
2022/07/09 04:37:20;;;;;;;9.60;9.30;;;17.10;99.90;;;;;;5109335;28;20229;-89
2022/07/09 04:39:48;;;;;;;9.80;9.50;;;17.20;99.90;;;;;;5102837;28;20232;-90
2022/07/09 04:42:16;;;;;;;9.52;9.23;;;17.30;99.90;;;;;;5099274;28;20227;-89
2022/07/09 04:44:44;;;;;;;9.60;9.30;;;17.30;99.90;;;;;;5097660;28;20213;-89
2022/07/09 04:47:12;;;;;;;9.45;9.15;;;17.30;99.90;;;;;;5098101;28;20293;-88
2022/07/09 04:49:42;;;;;;;9.40;9.10;;;17.40;99.90;;;;;;5100914;28;20229;-89
2022/07/09 04:52:10;;;;;;;9.45;9.15;;;17.50;99.90;;;;;;5100878;28;20237;-90
2022/07/09 04:54:38;;;;;;;9.60;9.30;;;17.50;99.90;;;;;;5100729;28;20226;-88
2022/07/09 04:57:07;;;;;;;9.70;9.40;;;17.50;99.90;;;;;;5098290;28;20241;-89
2022/07/09 04:59:35;;;;;;;9.65;9.35;;;17.50;99.90;;;;;;5103550;28;20229;-89
2022/07/09 05:02:06;;;;;;;9.68;9.38;;;17.50;99.90;;;;;;5110596;28;20221;-90
2022/07/09 05:04:34;;;;;;;9.70;9.40;;;17.50;99.90;;;;;;5104423;28;20229;-88
2022/07/09 05:07:06;;;;;;;9.90;9.60;;;17.50;99.90;;;;;;5097924;28;20236;-88
2022/07/09 05:09:34;;;;;;;9.95;9.65;;;17.60;99.90;;;;;;5097722;28;20233;-89
2022/07/09 05:12:02;;;;;;;9.93;9.63;;;17.60;99.90;;;;;;5097381;28;20237;-90
2022/07/09 05:14:30;;;;;;;9.90;9.60;;;17.60;99.90;;;;;;5098316;28;20221;-88
2022/07/09 05:16:59;;;;;;;10.10;9.80;;;17.70;99.90;;;;;;5098842;28;20234;-87
2022/07/09 05:19:27;;;;;;;10.25;9.95;;;17.70;99.90;;;;;;5097343;28;20261;-88
2022/07/09 05:22:01;;;;;;;10.05;9.75;;;17.70;99.90;;;;;;5097254;28;20291;-88
2022/07/09 05:24:31;;;;;;;10.20;9.90;;;17.70;99.90;;;;;;5101045;28;20704;-89
2022/07/09 05:26:59;;;;;;;10.30;10.00;;;17.80;99.90;;;;;;5097113;28;20256;-89
2022/07/09 05:29:27;;;;;;;10.20;9.90;;;17.80;99.90;;;;;;5114384;22;20230;-86
2022/07/09 05:31:54;;;;;;;9.98;9.68;;;17.90;99.90;;;;;;5103864;28;20231;-86
2022/07/09 05:34:22;;;;;;;10.20;9.90;;;17.80;99.90;;;;;;5104093;28;20224;-86
2022/07/09 05:36:51;;;;;;;10.10;9.80;;;17.80;99.90;;;;;;5104291;28;20263;-85
2022/07/09 05:39:19;;;;;;;10.10;9.80;;;17.90;99.90;;;;;;5103768;28;20228;-86
2022/07/09 05:41:51;;;;;;;10.18;9.88;;;17.90;99.90;;;;;;5102855;28;20314;-86
2022/07/09 05:44:18;;;;;;;10.10;9.80;;;18.00;99.90;;;;;;5103878;28;20346;-85
2022/07/09 05:46:46;;;;;;;10.02;9.73;;;18.00;99.90;;;;;;5106715;28;20233;-85
2022/07/09 05:49:14;;;;;;;9.82;9.52;;;18.00;99.90;;;;;;5112013;28;20237;-85
2022/07/09 05:51:44;;;;;;;9.85;9.55;;;18.10;99.90;;;;;;5112977;28;20233;-85
2022/07/09 05:54:15;;;;;;;9.98;9.68;;;18.20;99.90;;;;;;5113611;28;20222;-85
2022/07/09 05:56:43;;;;;;;10.30;10.00;;;18.30;99.90;;;;;;5113231;28;20225;-85
2022/07/09 05:59:12;;;;;;;9.80;9.50;;;18.30;99.90;;;;;;5101621;28;20240;-85
2022/07/09 06:01:42;;;;;;;10.00;9.70;;;18.40;99.90;;;;;;5101744;28;20260;-85
2022/07/09 06:04:13;;;;;;;10.20;9.90;;;18.40;99.90;;;;;;5101879;28;20237;-85
2022/07/09 06:06:41;;;;;;;10.13;9.82;;;18.40;99.90;;;;;;5101295;28;20237;-85
2022/07/09 06:09:09;;;;;;;9.98;9.68;;;18.50;99.90;;;;;;5100696;28;20236;-85
2022/07/09 06:11:37;;;;;;;10.15;9.85;;;18.40;99.90;;;;;;5101342;28;20226;-85
2022/07/09 06:14:07;;;;;;;10.18;9.88;;;18.50;99.90;;;;;;5100824;28;20229;-85
2022/07/09 06:16:36;;;;;;;10.10;9.80;;;18.50;99.90;;;;;;5101426;28;20248;-85
2022/07/09 06:19:03;;;;;;;10.27;9.98;;;18.50;99.90;;;;;;5101168;28;20267;-85
2022/07/09 06:21:31;;;;;;;10.10;9.80;;;18.60;99.90;;;;;;5101147;28;20230;-85
2022/07/09 06:24:03;;;;;;;10.38;10.07;;;18.60;99.90;;;;;;5100304;28;20222;-85
2022/07/09 06:26:31;;;;;;;10.38;10.07;;;18.70;99.90;;;;;;5100128;28;20264;-85
2022/07/09 06:29:02;;;;;;;10.45;10.15;;;18.70;99.90;;;;;;5100023;28;20647;-85
2022/07/09 06:31:30;;;;;;;10.45;10.15;;;18.90;99.90;;;;;;5100461;28;20260;-85
2022/07/09 06:33:59;;;;;;;10.27;9.98;;;19.10;99.90;;;;;;5099753;28;20232;-85
2022/07/09 06:36:27;;;;;;;10.70;10.40;;;19.30;99.90;;;;;;5102737;28;20230;-85
2022/07/09 06:41:41;;;;;;;10.70;10.40;;;19.70;99.90;;;;;;5103321;28;20261;-85
2022/07/09 06:44:11;;;;;;;10.68;10.38;;;19.80;99.90;;;;;;5102802;28;20220;-85
2022/07/09 06:46:39;;;;;;;10.40;10.10;;;19.80;99.90;;;;;;5103103;28;20234;-85
2022/07/09 06:49:13;;;;;;;10.60;10.30;;;19.90;99.90;;;;;;5103405;28;20233;-85
2022/07/09 06:51:43;;;;;;;10.50;10.20;;;20.00;99.90;;;;;;5103178;28;20295;-85
2022/07/09 06:54:11;;;;;;;10.60;10.30;;;20.10;99.90;;;;;;5103954;28;20328;-86
2022/07/09 06:56:48;;;;;;;10.15;9.85;;;20.10;99.90;;;;;;5103870;28;20244;-85
2022/07/09 07:02:08;;;;;;;10.27;9.98;;;20.30;99.90;;;;;;5096903;28;20241;-85
2022/07/09 07:05:09;;;;;;;10.50;10.20;;;20.40;99.90;;;;;;5103559;28;20260;-85
2022/07/09 07:07:37;;;;;;;10.60;10.30;;;20.40;99.90;;;;;;5104610;28;20253;-86
2022/07/09 07:10:12;;;;;;;10.40;10.10;;;20.40;99.90;;;;;;5105174;28;20751;-85
2022/07/09 07:12:41;;;;;;;10.60;10.30;;;20.50;99.90;;;;;;5104904;28;20228;-85
2022/07/09 07:15:10;;;;;;;10.63;10.32;;;20.50;99.90;;;;;;5103775;28;20299;-86
2022/07/09 07:17:40;;;;;;;10.80;10.50;;;20.60;99.90;;;;;;5103339;28;20233;-85
2022/07/09 07:20:11;;;;;;;10.70;10.40;;;20.70;99.90;;;;;;5103155;28;20225;-86
2022/07/09 07:22:42;;;;;;;10.40;10.10;;;20.80;99.90;;;;;;5103601;28;20213;-86
2022/07/09 07:25:10;;;;;;;10.48;10.18;;;20.80;99.90;;;;;;5103297;28;20228;-86
2022/07/09 07:30:22;;;;;;;10.38;10.07;;;21.10;99.90;;;;;;5100064;28;20229;-85
2022/07/09 07:33:01;;;;;;;10.60;10.30;;;21.20;99.90;;;;;;5103314;28;20225;-86
2022/07/09 07:35:31;;;;;;;10.50;10.20;;;21.30;99.90;;;;;;5104630;28;20252;-86
2022/07/09 07:38:01;;;;;;;10.63;10.32;;;21.50;99.90;;;;;;5103712;28;20240;-86
2022/07/09 07:40:32;;;;;;;10.43;10.13;;;21.60;99.90;;;;;;5104554;28;20232;-85
2022/07/09 07:43:05;;;;;;;10.55;10.25;;;21.70;99.90;;;;;;5102969;28;20234;-86
2022/07/09 07:45:49;;;;;;;10.65;10.35;;;21.80;99.90;;;;;;5103415;28;20222;-85
2022/07/09 07:48:19;;;;;;;10.27;9.98;;;21.80;99.90;;;;;;5091306;28;20233;-86
2022/07/09 07:51:06;;;;;;;10.18;9.88;;;21.90;99.90;;;;;;5103317;28;21020;-85
2022/07/09 07:53:34;;;;;;;9.98;9.68;;;22.00;99.90;;;;;;5103284;28;20218;-85
2022/07/09 07:56:20;;;;;;;10.40;10.10;;;22.00;99.90;;;;;;5103220;28;20222;-85
2022/07/09 07:59:13;;;;;;;10.40;10.10;;;22.10;99.90;;;;;;5102863;28;20294;-85
2022/07/09 08:01:40;;;;;;;10.20;9.90;;;22.20;99.90;;;;;;5103856;28;20226;-86
2022/07/09 08:04:08;;;;;;;10.45;10.15;;;22.30;99.90;;;;;;5113315;28;20226;-85
2022/07/09 08:07:01;;;;;;;10.30;10.00;;;22.50;99.90;;;;;;5113496;28;20249;-86
2022/07/09 08:09:50;;;;;;;10.40;10.10;;;22.70;99.90;;;;;;5097033;28;20273;-86
2022/07/09 08:12:19;;;;;;;10.30;10.00;;;22.90;99.90;;;;;;5105158;28;20237;-86
2022/07/09 08:14:50;;;;;;;10.40;10.10;;;23.10;99.90;;;;;;5105223;28;20225;-86
2022/07/09 08:17:35;;;;;;;10.45;10.15;;;23.30;99.90;;;;;;5104743;28;20256;-86
2022/07/09 08:20:08;;;;;;;10.40;10.10;;;23.50;99.90;;;;;;5104955;28;20237;-86
2022/07/09 08:22:37;;;;;;;10.30;10.00;;;23.40;99.90;;;;;;5104821;28;20263;-86
2022/07/09 08:25:08;;;;;;;10.20;9.90;;;23.40;99.90;;;;;;5103938;28;20226;-86
2022/07/09 08:27:38;;;;;;;10.00;9.70;;;23.40;99.90;;;;;;5104816;28;20297;-86
2022/07/09 08:30:09;;;;;;;10.30;10.00;;;23.50;99.90;;;;;;5104889;28;20237;-86
2022/07/09 08:32:40;;;;;;;10.43;10.13;;;23.60;99.90;;;;;;5105791;28;20233;-86
2022/07/09 08:35:12;;;;;;;10.75;10.45;;;23.60;99.90;;;;;;5105957;28;20233;-86
2022/07/09 08:37:46;;;;;;;11.00;10.70;;;23.40;99.90;;;;;;5105518;28;20257;-85
2022/07/09 08:40:15;;;;;;;10.55;10.25;;;23.60;99.90;;;;;;5106167;28;20225;-86
2022/07/09 08:42:49;;;;;;;10.77;10.48;;;23.50;99.90;;;;;;5105746;28;20256;-85
2022/07/09 08:45:19;;;;;;;10.82;10.52;;;23.70;99.90;;;;;;5106089;28;20225;-86
2022/07/09 08:47:52;;;;;;;10.93;10.63;;;23.90;99.90;;;;;;5105903;28;20225;-86
2022/07/09 08:50:59;;;;;;;10.70;10.40;;;24.10;99.90;;;;;;5107515;28;20591;-86
2022/07/09 08:53:47;;;;;;;10.68;10.38;;;24.10;99.90;;;;;;5106353;28;20227;-86
2022/07/09 08:56:18;;;;;;;10.75;10.45;;;24.10;99.90;;;;;;5105447;28;20224;-86
2022/07/09 08:58:45;;;;;;;10.90;10.60;;;24.30;99.90;;;;;;5108037;28;20226;-86
2022/07/09 09:01:18;;;;;;;10.30;10.00;;;24.60;99.90;;;;;;5106491;28;20290;-86
2022/07/09 09:03:49;;;;;;;10.85;10.55;;;24.70;99.90;;;;;;5106556;28;20336;-86
2022/07/09 09:06:21;;;;;;;10.52;10.23;;;24.80;99.90;;;;;;5105531;28;20229;-86
2022/07/09 09:08:59;;;;;;;10.65;10.35;;;24.50;99.90;;;;;;5105099;28;20302;-86
2022/07/09 09:11:35;;;;;;;10.60;10.30;;;24.20;99.90;;;;;;5106627;28;20236;-86
2022/07/09 09:14:03;;;;;;;10.60;10.30;;;24.00;99.90;;;;;;5107451;28;20248;-86
2022/07/09 09:16:31;;;;;;;10.95;10.65;;;23.80;99.90;;;;;;5105694;28;20222;-86
2022/07/09 09:19:00;;;;;;;10.90;10.60;;;23.60;99.90;;;;;;5105729;28;20221;-86
2022/07/09 09:21:34;;;;;;;11.00;10.70;;;23.40;99.90;;;;;;5105812;28;20233;-86
2022/07/09 09:24:06;;;;;;;11.00;10.70;;;23.40;99.90;;;;;;5105679;28;20233;-86
2022/07/09 09:26:35;;;;;;;10.93;10.63;;;23.30;99.90;;;;;;5105343;28;20233;-86
2022/07/09 09:29:07;;;;;;;10.80;10.50;;;23.10;99.90;;;;;;5104151;28;20229;-86
2022/07/09 09:31:37;;;;;;;10.80;10.50;;;23.10;99.90;;;;;;5105125;28;20233;-86
2022/07/09 09:34:15;;;;;;;10.90;10.60;;;22.90;99.90;;;;;;5105587;28;20221;-86
2022/07/09 09:36:44;;;;;;;10.65;10.35;;;22.60;99.90;;;;;;5104230;28;20225;-86
2022/07/09 09:39:16;;;;;;;10.57;10.27;;;22.20;99.90;;;;;;5104353;28;20237;-85
2022/07/09 09:41:46;;;;;;;10.30;10.00;;;21.90;99.90;;;;;;5105223;28;20230;-86
2022/07/09 09:44:16;;;;;;;10.40;10.10;;;21.80;99.90;;;;;;5104911;28;20293;-87
2022/07/09 09:46:47;;;;;;;10.43;10.13;;;21.80;99.90;;;;;;5113408;28;20247;-86
2022/07/09 09:49:16;;;;;;;10.40;10.10;;;21.80;99.90;;;;;;5118841;28;20236;-86
2022/07/09 09:51:52;;;;;;;10.40;10.10;;;22.00;99.90;;;;;;5118896;28;20259;-86
2022/07/09 09:54:22;;;;;;;10.60;10.30;;;22.20;99.90;;;;;;5106893;28;20248;-86
2022/07/09 09:56:53;;;;;;;11.02;10.73;;;22.40;99.90;;;;;;5105737;28;20263;-86
2022/07/09 09:59:20;;;;;;;10.73;10.43;;;22.60;99.90;;;;;;5105553;28;20233;-86
2022/07/09 10:01:49;;;;;;;10.60;10.30;;;22.80;99.90;;;;;;5106483;28;20234;-86
2022/07/09 10:04:18;;;;;;;10.55;10.25;;;23.00;99.90;;;;;;5106641;28;20237;-86
2022/07/09 10:06:46;;;;;;;10.52;10.23;;;23.10;99.90;;;;;;5105716;28;20291;-86
2022/07/09 10:09:15;;;;;;;10.70;10.40;;;23.30;99.90;;;;;;5105989;28;20225;-86
2022/07/09 10:11:46;;;;;;;10.40;10.10;;;23.60;99.90;;;;;;5107795;28;20229;-86
2022/07/09 10:14:20;;;;;;;10.45;10.15;;;23.70;99.90;;;;;;5106784;28;20229;-87
2022/07/09 10:16:50;;;;;;;10.45;10.15;;;23.60;99.90;;;;;;5106420;28;20225;-86
2022/07/09 10:19:26;;;;;;;10.30;10.00;;;23.40;99.90;;;;;;5108431;28;20213;-86
2022/07/09 10:21:55;;;;;;;10.35;10.05;;;23.50;99.90;;;;;;5117444;28;20217;-86
2022/07/09 10:24:27;;;;;;;10.40;10.10;;;23.60;99.90;;;;;;5111406;28;20225;-87
2022/07/09 10:27:06;;;;;;;10.25;9.95;;;23.90;99.90;;;;;;5107875;28;20256;-86
2022/07/09 10:29:36;;;;;;;10.43;10.13;;;24.00;99.90;;;;;;5106861;28;20297;-86
2022/07/09 10:32:05;;;;;;;10.70;10.40;;;24.00;99.90;;;;;;5106744;28;20230;-86
2022/07/09 10:34:46;;;;;;;10.50;10.20;;;24.20;99.90;;;;;;5106041;28;20233;-87
2022/07/09 10:37:13;;;;;;;10.57;10.27;;;24.20;99.90;;;;;;5106522;28;20233;-86
2022/07/09 10:39:41;;;;;;;10.50;10.20;;;24.20;99.90;;;;;;5108496;28;20233;-87
2022/07/09 10:42:21;;;;;;;10.40;10.10;;;24.00;99.90;;;;;;5106922;28;20240;-86
2022/07/09 10:44:51;;;;;;;10.40;10.10;;;23.80;99.90;;;;;;5104710;28;20237;-86
2022/07/09 10:47:19;;;;;;;10.38;10.07;;;23.50;99.90;;;;;;5105104;28;20295;-86
2022/07/09 10:49:46;;;;;;;10.52;10.23;;;23.20;99.90;;;;;;5105267;28;20238;-86
2022/07/09 10:52:14;;;;;;;10.40;10.10;;;22.70;99.90;;;;;;5104829;28;20233;-86
2022/07/09 10:54:52;;;;;;;10.40;10.10;;;22.30;99.90;;;;;;5104264;28;20249;-85
2022/07/09 10:57:22;;;;;;;10.50;10.20;;;22.10;99.90;;;;;;5105345;28;20316;-86
2022/07/09 10:59:53;;;;;;;10.40;10.10;;;22.00;99.90;;;;;;5104099;28;20217;-85
2022/07/09 11:02:24;;;;;;;10.38;10.07;;;21.90;99.90;;;;;;5106913;28;20233;-85
2022/07/09 11:04:54;;;;;;;10.35;10.05;;;21.90;99.90;;;;;;5106040;28;20241;-86
2022/07/09 11:07:29;;;;;;;10.15;9.85;;;21.90;99.90;;;;;;5104357;28;20283;-86
2022/07/09 11:09:57;;;;;;;10.48;10.18;;;21.90;99.90;;;;;;5104255;28;20244;-86
2022/07/09 11:12:38;;;;;;;10.18;9.88;;;22.00;99.90;;;;;;5104388;28;20253;-86
2022/07/09 11:15:19;;;;;;;10.45;10.15;;;21.90;99.90;;;;;;5105776;28;20238;-86
2022/07/09 11:18:00;;;;;;;10.52;10.23;;;21.80;99.90;;;;;;5104357;28;20230;-86
2022/07/09 11:20:32;;;;;;;10.40;10.10;;;21.80;99.90;;;;;;5103188;28;20229;-85
2022/07/09 11:23:01;;;;;;;10.50;10.20;;;21.70;99.90;;;;;;5103582;28;20225;-85
2022/07/09 11:25:29;;;;;;;10.20;9.90;;;21.70;99.90;;;;;;5103206;28;20287;-86
2022/07/09 11:36:52;;;;;;;10.30;10.00;;;21.70;99.90;;;;;;5098063;28;20206;-88
2022/07/09 11:48:18;;;;;;;10.25;9.95;;;21.70;99.90;;;;;;6050254;22;20221;-88
2022/07/09 11:51:07;;;;;;;10.05;9.75;;;21.70;99.90;;;;;;5003539;28;20224;-87
2022/07/09 11:54:01;;;;;;;10.43;10.13;;;21.70;99.90;;;;;;5021107;28;20221;-87
2022/07/09 11:59:52;;;;;;;10.38;10.07;;;22.00;99.90;;;;;;5012747;28;20272;-87
2022/07/09 12:02:41;;;;;;;10.30;10.00;;;22.00;99.90;;;;;;5016585;28;20220;-88
2022/07/09 12:05:38;;;;;;;10.30;10.00;;;22.10;99.90;;;;;;5013863;28;20228;-87
2022/07/09 12:08:08;;;;;;;10.10;9.80;;;22.10;99.90;;;;;;5006630;28;20232;-87
2022/07/09 12:10:38;;;;;;;10.07;9.77;;;22.10;99.90;;;;;;5000198;28;20242;-87
2022/07/09 12:13:08;;;;;;;10.50;10.20;;;21.90;99.90;;;;;;4999910;28;20229;-87
2022/07/09 12:15:37;;;;;;;10.35;10.05;;;21.90;99.90;;;;;;5000237;28;20224;-87
2022/07/09 12:18:06;;;;;;;9.98;9.68;;;22.00;99.90;;;;;;4999586;28;20252;-87
2022/07/09 12:20:35;;;;;;;10.60;10.30;;;22.10;99.90;;;;;;4999225;28;20264;-86
2022/07/09 12:23:04;;;;;;;10.30;10.00;;;22.20;99.90;;;;;;4999796;28;20239;-88
2022/07/09 12:25:32;;;;;;;10.30;10.00;;;22.50;99.90;;;;;;4999524;28;20228;-87
2022/07/09 12:27:59;;;;;;;10.40;10.10;;;22.90;99.90;;;;;;4998366;28;20248;-87
2022/07/09 12:30:29;;;;;;;10.60;10.30;;;23.20;99.90;;;;;;4997936;28;20292;-87
2022/07/09 12:32:58;;;;;;;10.40;10.10;;;23.10;99.90;;;;;;4998486;28;20237;-87
2022/07/09 12:35:26;;;;;;;10.50;10.20;;;23.10;99.90;;;;;;4997469;28;20233;-86
2022/07/09 12:37:56;;;;;;;10.50;10.20;;;23.50;99.90;;;;;;4997153;28;20233;-87
2022/07/09 12:40:24;;;;;;;10.50;10.20;;;23.50;99.90;;;;;;4997457;28;20631;-87
2022/07/09 12:42:52;;;;;;;10.45;10.15;;;23.60;99.90;;;;;;4997895;28;20303;-87
2022/07/09 12:45:20;;;;;;;10.57;10.27;;;23.50;99.90;;;;;;4997528;28;20229;-87
2022/07/09 12:47:48;;;;;;;10.65;10.35;;;23.50;99.90;;;;;;4998197;28;20239;-87
2022/07/09 12:50:17;;;;;;;10.50;10.20;;;23.50;99.90;;;;;;4999284;28;20335;-88
2022/07/09 12:52:45;;;;;;;10.60;10.30;;;23.60;99.90;;;;;;5004553;28;20221;-87
2022/07/09 12:55:16;;;;;;;10.40;10.10;;;23.70;99.90;;;;;;5006963;28;20232;-88
2022/07/09 12:57:44;;;;;;;10.70;10.40;;;23.80;99.90;;;;;;5002155;28;20236;-87
2022/07/09 13:00:14;;;;;;;10.38;10.07;;;23.90;99.90;;;;;;4998227;28;20303;-87
2022/07/09 13:02:47;;;;;;;10.52;10.23;;;24.30;99.90;;;;;;4981236;28;20213;-87
2022/07/09 13:05:16;;;;;;;10.80;10.50;;;24.70;99.90;;;;;;5019051;28;20221;-85
2022/07/09 13:07:44;;;;;;;10.40;10.10;;;25.00;99.90;;;;;;5011126;28;20225;-87
2022/07/09 13:10:13;;;;;;;10.57;10.27;;;25.10;99.90;;;;;;4998531;28;20236;-86
2022/07/09 13:12:41;;;;;;;10.50;10.20;;;25.10;99.90;;;;;;4999728;28;20236;-86
2022/07/09 13:15:10;;;;;;;10.43;10.13;;;25.10;99.90;;;;;;4997293;28;20232;-87
2022/07/09 13:17:39;;;;;;;10.63;10.32;;;25.10;99.90;;;;;;4997240;28;20236;-86
2022/07/09 13:20:09;;;;;;;10.57;10.27;;;25.10;99.90;;;;;;4997115;28;20237;-87
2022/07/09 13:22:38;;;;;;;10.60;10.30;;;25.30;99.90;;;;;;5005005;28;20217;-85